sensor_id;sensor_type;location;lat;lon;timestamp;pressure;altitude;pressure_sealevel;temperature;humidity
38939;BME280;24211;49.980;19.776;2023-02-19T19:46:33;99769.19;;;3.56;100.00
38939;BME280;24211;49.980;19.776;2023-02-19T19:49:02;99778.09;;;3.47;100.00
38939;BME280;24211;49.980;19.776;2023-02-19T19:51:33;99785.25;;;3.39;100.00
38939;BME280;24211;49.980;19.776;2023-02-19T19:54:01;99783.09;;;3.34;100.00
38939;BME280;24211;49.980;19.776;2023-02-19T19:56:30;99787.69;;;3.32;100.00
38939;BME280;24211;49.980;19.776;2023-02-19T19:58:57;99794.97;;;3.30;100.00
38939;BME280;24211;49.980;19.776;2023-02-19T20:01:24;99789.03;;;3.28;100.00
38939;BME280;24211;49.980;19.776;2023-02-19T20:03:52;99794.97;;;3.22;100.00
38939;BME280;24211;49.980;19.776;2023-02-19T20:06:25;99800.59;;;3.19;100.00
38939;BME280;24211;49.980;19.776;2023-02-19T20:08:53;99800.09;;;3.15;100.00
38939;BME280;24211;49.980;19.776;2023-02-19T20:11:21;99805.56;;;3.14;100.00
38939;BME280;24211;49.980;19.776;2023-02-19T20:13:49;99806.84;;;3.10;100.00
38939;BME280;24211;49.980;19.776;2023-02-19T20:16:26;99819.41;;;3.08;100.00
38939;BME280;24211;49.980;19.776;2023-02-19T20:18:54;99810.66;;;3.07;100.00
38939;BME280;24211;49.980;19.776;2023-02-19T20:21:21;99809.84;;;3.07;100.00
38939;BME280;24211;49.980;19.776;2023-02-19T20:23:48;99811.16;;;3.03;100.00
38939;BME280;24211;49.980;19.776;2023-02-19T20:26:24;99808.03;;;2.99;100.00
38939;BME280;24211;49.980;19.776;2023-02-19T20:28:53;99808.53;;;2.95;100.00
38939;BME280;24211;49.980;19.776;2023-02-19T20:31:21;99806.88;;;2.94;100.00
38939;BME280;24211;49.980;19.776;2023-02-19T20:33:49;99817.75;;;2.91;100.00
38939;BME280;24211;49.980;19.776;2023-02-19T20:36:18;99811.81;;;2.89;100.00
38939;BME280;24211;49.980;19.776;2023-02-19T20:38:48;99813.47;;;2.90;100.00
38939;BME280;24211;49.980;19.776;2023-02-19T20:41:15;99806.84;;;2.86;100.00
38939;BME280;24211;49.980;19.776;2023-02-19T20:43:42;99807.03;;;2.84;100.00
38939;BME280;24211;49.980;19.776;2023-02-19T20:46:10;99815.44;;;2.80;100.00
38939;BME280;24211;49.980;19.776;2023-02-19T20:48:38;99820.19;;;2.76;100.00
38939;BME280;24211;49.980;19.776;2023-02-19T20:51:05;99832.56;;;2.76;100.00
38939;BME280;24211;49.980;19.776;2023-02-19T20:53:33;99830.59;;;2.70;100.00
38939;BME280;24211;49.980;19.776;2023-02-19T20:56:00;99837.34;;;2.64;100.00
38939;BME280;24211;49.980;19.776;2023-02-19T20:58:27;99839.13;;;2.63;100.00
38939;BME280;24211;49.980;19.776;2023-02-19T21:00:54;99840.16;;;2.62;100.00
38939;BME280;24211;49.980;19.776;2023-02-19T21:03:21;99851.34;;;2.64;100.00
38939;BME280;24211;49.980;19.776;2023-02-19T21:05:48;99853.47;;;2.61;100.00
38939;BME280;24211;49.980;19.776;2023-02-19T21:08:16;99854.00;;;2.64;100.00
38939;BME280;24211;49.980;19.776;2023-02-19T21:10:45;99859.59;;;2.61;100.00
38939;BME280;24211;49.980;19.776;2023-02-19T21:13:12;99864.69;;;2.63;100.00
38939;BME280;24211;49.980;19.776;2023-02-19T21:15:39;99865.84;;;2.60;100.00
38939;BME280;24211;49.980;19.776;2023-02-19T21:18:07;99868.81;;;2.57;100.00
38939;BME280;24211;49.980;19.776;2023-02-19T21:20:34;99872.44;;;2.56;100.00
38939;BME280;24211;49.980;19.776;2023-02-19T21:23:02;99869.78;;;2.56;100.00
38939;BME280;24211;49.980;19.776;2023-02-19T21:25:29;99879.03;;;2.52;100.00
38939;BME280;24211;49.980;19.776;2023-02-19T21:27:59;99876.19;;;2.46;100.00
38939;BME280;24211;49.980;19.776;2023-02-19T21:30:26;99868.75;;;2.41;100.00
38939;BME280;24211;49.980;19.776;2023-02-19T21:32:53;99879.59;;;2.38;100.00
38939;BME280;24211;49.980;19.776;2023-02-19T21:35:20;99877.97;;;2.37;100.00
38939;BME280;24211;49.980;19.776;2023-02-19T21:37:47;99884.56;;;2.41;100.00
38939;BME280;24211;49.980;19.776;2023-02-19T21:40:14;99886.25;;;2.42;100.00
38939;BME280;24211;49.980;19.776;2023-02-19T21:42:42;99899.78;;;2.47;100.00
38939;BME280;24211;49.980;19.776;2023-02-19T21:45:09;99894.50;;;2.47;100.00
38939;BME280;24211;49.980;19.776;2023-02-19T21:47:36;99905.06;;;2.47;100.00
38939;BME280;24211;49.980;19.776;2023-02-19T21:50:04;99911.97;;;2.48;100.00
38939;BME280;24211;49.980;19.776;2023-02-19T21:52:31;99899.47;;;2.50;100.00
38939;BME280;24211;49.980;19.776;2023-02-19T21:54:58;99905.09;;;2.55;100.00
38939;BME280;24211;49.980;19.776;2023-02-19T21:57:26;99911.34;;;2.54;100.00
38939;BME280;24211;49.980;19.776;2023-02-19T21:59:53;99903.06;;;2.49;100.00
38939;BME280;24211;49.980;19.776;2023-02-19T22:02:20;99901.75;;;2.45;100.00
38939;BME280;24211;49.980;19.776;2023-02-19T22:04:52;99903.03;;;2.41;100.00
38939;BME280;24211;49.980;19.776;2023-02-19T22:07:21;99907.34;;;2.42;100.00
38939;BME280;24211;49.980;19.776;2023-02-19T22:09:49;99907.47;;;2.41;100.00
38939;BME280;24211;49.980;19.776;2023-02-19T22:12:18;99915.88;;;2.36;100.00
38939;BME280;24211;49.980;19.776;2023-02-19T22:14:45;99921.47;;;2.33;100.00
38939;BME280;24211;49.980;19.776;2023-02-19T22:17:13;99927.72;;;2.32;100.00
38939;BME280;24211;49.980;19.776;2023-02-19T22:19:40;99924.13;;;2.33;100.00
38939;BME280;24211;49.980;19.776;2023-02-19T22:22:07;99919.66;;;2.34;100.00
38939;BME280;24211;49.980;19.776;2023-02-19T22:24:34;99929.88;;;2.37;100.00
38939;BME280;24211;49.980;19.776;2023-02-19T22:27:02;99933.53;;;2.36;100.00
38939;BME280;24211;49.980;19.776;2023-02-19T22:29:29;99935.81;;;2.31;100.00
38939;BME280;24211;49.980;19.776;2023-02-19T22:31:56;99937.44;;;2.32;100.00
38939;BME280;24211;49.980;19.776;2023-02-19T22:34:24;99937.44;;;2.32;100.00
38939;BME280;24211;49.980;19.776;2023-02-19T22:36:51;99948.53;;;2.35;100.00
38939;BME280;24211;49.980;19.776;2023-02-19T22:39:25;99946.84;;;2.34;100.00
38939;BME280;24211;49.980;19.776;2023-02-19T22:41:53;99942.88;;;2.30;100.00
38939;BME280;24211;49.980;19.776;2023-02-19T22:44:20;99950.28;;;2.27;100.00
38939;BME280;24211;49.980;19.776;2023-02-19T22:46:54;99948.47;;;2.27;100.00
38939;BME280;24211;49.980;19.776;2023-02-19T22:49:22;99946.81;;;2.26;100.00
38939;BME280;24211;49.980;19.776;2023-02-19T22:52:09;99961.66;;;2.27;100.00
38939;BME280;24211;49.980;19.776;2023-02-19T22:54:37;99961.00;;;2.25;100.00
38939;BME280;24211;49.980;19.776;2023-02-19T22:57:04;99957.34;;;2.26;100.00
38939;BME280;24211;49.980;19.776;2023-02-19T22:59:31;99965.78;;;2.30;100.00
38939;BME280;24211;49.980;19.776;2023-02-19T23:01:59;99970.22;;;2.29;100.00
38939;BME280;24211;49.980;19.776;2023-02-19T23:04:26;99975.50;;;2.29;100.00
38939;BME280;24211;49.980;19.776;2023-02-19T23:06:54;99968.25;;;2.31;100.00
38939;BME280;24211;49.980;19.776;2023-02-19T23:09:29;99974.66;;;2.29;100.00
38939;BME280;24211;49.980;19.776;2023-02-19T23:12:09;99970.22;;;2.29;100.00
38939;BME280;24211;49.980;19.776;2023-02-19T23:14:37;99977.47;;;2.27;100.00
38939;BME280;24211;49.980;19.776;2023-02-19T23:17:04;99973.03;;;2.28;100.00
38939;BME280;24211;49.980;19.776;2023-02-19T23:19:31;99968.91;;;2.25;100.00
38939;BME280;24211;49.980;19.776;2023-02-19T23:21:58;99972.50;;;2.24;100.00
38939;BME280;24211;49.980;19.776;2023-02-19T23:24:25;99974.16;;;2.25;100.00
38939;BME280;24211;49.980;19.776;2023-02-19T23:26:53;99979.59;;;2.24;100.00
38939;BME280;24211;49.980;19.776;2023-02-19T23:29:24;99976.44;;;2.20;100.00
38939;BME280;24211;49.980;19.776;2023-02-19T23:31:53;99980.06;;;2.19;100.00
38939;BME280;24211;49.980;19.776;2023-02-19T23:34:20;99988.97;;;2.18;100.00
38939;BME280;24211;49.980;19.776;2023-02-19T23:36:49;99990.94;;;2.16;100.00
38939;BME280;24211;49.980;19.776;2023-02-19T23:39:19;99978.72;;;2.15;100.00
38939;BME280;24211;49.980;19.776;2023-02-19T23:41:53;99986.63;;;2.15;100.00
38939;BME280;24211;49.980;19.776;2023-02-19T23:44:23;99993.22;;;2.11;100.00
38939;BME280;24211;49.980;19.776;2023-02-19T23:46:51;99996.81;;;2.10;100.00
38939;BME280;24211;49.980;19.776;2023-02-19T23:49:18;99983.47;;;2.12;100.00
38939;BME280;24211;49.980;19.776;2023-02-19T23:51:46;99989.56;;;2.12;100.00
38939;BME280;24211;49.980;19.776;2023-02-19T23:54:13;99993.03;;;2.13;100.00
38939;BME280;24211;49.980;19.776;2023-02-19T23:56:40;99984.81;;;2.16;100.00
38939;BME280;24211;49.980;19.776;2023-02-19T23:59:07;99990.22;;;2.14;100.00
